»·PEaware :: DAL7150 KLAX-KSAN

DAL7150 :: KLAX-KSAN

FLIGHT INFORMATION

Flight Status: Arrived
Operator:
Delta Air Lines
More flights by this operator :: More flights under this callsign
Pilot: John H. (20300)
Aircraft: MCDONNELL-DOUGLAS MD-82
(MD82)
More flights by this aircraft type
Origin: KLAX Los Angeles Intl
United States
Destination: KSAN San Diego Intl-Lindbergh
United States
More flights between these airports :: More routes between these airports
Route: +LAXX1 MZB
File this flight plan on PilotEdge
Remarks:
Altitude:
(Current/Filed)
10,000ft
Speed:
(Current/Filed)
490kts
Departed: 11-Oct-18 10:20 AM
Arrived: 11-Oct-18 11:05 AM
Distance/Time
Traveled:
94nm/0:45
Distance/Time
To Go:
Arrived

Flight Plot

Page will automatically refresh every two minutes.

Flight plan parsing failed; only flown route is shown


Map Options




Map Legend


Flown Route
Filed Route
Departure Airport
Arrival Airport
Navaid (VOR, NDB)
Fix

Horizontal Profiles

Position Reports

Time Latitude Longitude Heading Altitude Ground
Speed
11-Oct-18 09:58 33.940024 -118.404943 88 135ft 0kts
11-Oct-18 10:00 33.940024 -118.404943 88 135ft 0kts
11-Oct-18 10:01 33.940024 -118.404943 88 135ft 0kts
11-Oct-18 10:02 33.940024 -118.404943 88 135ft 0kts
11-Oct-18 10:03 33.940024 -118.404943 88 135ft 0kts
11-Oct-18 10:04 33.940024 -118.404943 88 135ft 0kts
11-Oct-18 10:05 33.940024 -118.404943 88 135ft 0kts
11-Oct-18 10:06 33.940024 -118.404943 88 135ft 0kts
11-Oct-18 10:07 33.940024 -118.404943 88 135ft 0kts
11-Oct-18 10:08 33.940024 -118.404943 88 135ft 0kts
11-Oct-18 10:09 33.940023 -118.405007 88 135ft 1kts
11-Oct-18 10:10 33.940012 -118.405666 88 135ft 0kts
11-Oct-18 10:11 33.940012 -118.405665 88 135ft 0kts
11-Oct-18 10:12 33.940012 -118.405665 88 135ft 0kts
11-Oct-18 10:13 33.939915 -118.405569 161 135ft 0kts
11-Oct-18 10:14 33.939913 -118.405569 161 135ft 0kts
11-Oct-18 10:15 33.938570 -118.405254 159 135ft 12kts
11-Oct-18 10:16 33.938718 -118.401035 82 135ft 16kts
11-Oct-18 10:17 33.939353 -118.395290 82 135ft 14kts
11-Oct-18 10:18 33.939932 -118.389114 82 135ft 18kts
11-Oct-18 10:19 33.940459 -118.383888 82 135ft 12kts
11-Oct-18 10:20 33.940352 -118.383306 171 135ft 0kts
11-Oct-18 10:21 33.940325 -118.383301 171 135ft 2kts
11-Oct-18 10:22 33.938564 -118.393474 263 135ft 117kts
11-Oct-18 10:23 33.923710 -118.448815 215 1530ft 246kts
11-Oct-18 10:24 33.866970 -118.430040 105 3364ft 194kts
11-Oct-18 10:25 33.835614 -118.375198 172 5460ft 248kts
11-Oct-18 10:26 33.795795 -118.431597 274 3555ft 267kts
11-Oct-18 10:27 33.810149 -118.514864 281 4825ft 255kts
11-Oct-18 10:28 33.818995 -118.598086 242 6311ft 250kts
11-Oct-18 10:29 33.761935 -118.604833 133 7827ft 251kts
11-Oct-18 10:30 33.723862 -118.533406 122 9329ft 256kts
11-Oct-18 10:31 33.685360 -118.455038 122 10830ft 303kts
11-Oct-18 10:32 33.637802 -118.359211 121 11007ft 341kts
11-Oct-18 10:33 33.589194 -118.261076 121 10994ft 341kts
11-Oct-18 10:34 33.536470 -118.166899 133 10995ft 340kts
11-Oct-18 10:35 33.472035 -118.084333 134 10995ft 339kts
11-Oct-18 10:36 33.407607 -118.001610 134 11014ft 339kts
11-Oct-18 10:37 33.342404 -117.919873 135 11036ft 339kts
11-Oct-18 10:38 33.277170 -117.838144 135 11040ft 339kts
11-Oct-18 10:39 33.211656 -117.756461 135 11042ft 339kts
11-Oct-18 10:40 33.146385 -117.674985 135 11042ft 339kts
11-Oct-18 10:41 33.081048 -117.593763 135 11027ft 339kts
11-Oct-18 10:42 33.015643 -117.512787 135 11031ft 339kts
11-Oct-18 10:43 32.971298 -117.415504 104 11038ft 344kts
11-Oct-18 10:44 32.953436 -117.303230 101 11028ft 345kts
11-Oct-18 10:45 32.928864 -117.194033 121 11037ft 340kts
11-Oct-18 10:46 32.874963 -117.107604 131 9216ft 306kts
11-Oct-18 10:47 32.823910 -117.032860 131 7202ft 277kts
11-Oct-18 10:48 32.778841 -116.966864 122 6982ft 248kts
11-Oct-18 10:49 32.763322 -116.887795 101 6145ft 230kts
11-Oct-18 10:50 32.754476 -116.816003 101 5185ft 217kts
11-Oct-18 10:51 32.719284 -116.781646 210 5017ft 201kts
11-Oct-18 10:52 32.697019 -116.843169 251 5012ft 208kts
11-Oct-18 10:53 32.679707 -116.908163 251 4809ft 198kts
11-Oct-18 10:54 32.662275 -116.967372 252 3640ft 189kts
11-Oct-18 10:55 32.685497 -117.017671 335 3848ft 212kts
11-Oct-18 10:56 32.743981 -117.019528 1 4006ft 211kts
11-Oct-18 10:57 32.776589 -116.978628 104 4048ft 218kts
11-Oct-18 10:58 32.755478 -116.908817 111 4079ft 244kts
11-Oct-18 10:59 32.723017 -116.845189 170 4129ft 203kts
11-Oct-18 11:00 32.683078 -116.877111 249 3963ft 181kts
11-Oct-18 11:01 32.679359 -116.934287 258 3853ft 180kts
11-Oct-18 11:02 32.687225 -116.988841 285 3205ft 160kts
11-Oct-18 11:03 32.699627 -117.042159 284 2812ft 167kts
11-Oct-18 11:04 32.710315 -117.089846 283 1868ft 133kts
11-Oct-18 11:05 32.720072 -117.132360 282 994ft 132kts
11-Oct-18 11:06 32.730278 -117.176040 285 138ft 137kts
11-Oct-18 11:07 32.736297 -117.200972 285 24ft 26kts
11-Oct-18 11:08 32.736083 -117.202237 199 24ft 0kts
11-Oct-18 11:09 32.734709 -117.203301 233 24ft 3kts

Navigation Log

Ident Type
Flight plan parsing failed, navigation log unavailable